Time;durP1;ratioP1;P1;durP2;ratioP2;P2;SDS_P1;SDS_P2;PMS_P1;PMS_P2;Temp;Humidity;BMP_temperature;BMP_pressure;BME280_temperature;BME280_humidity;BME280_pressure;Samples;Min_cycle;Max_cycle;Signal;HPM_P1;HPM_P2
2023/03/09 00:01:53;;;;;;;0.60;0.60;;;;;;;;;;10224989;28;20050;-83
2023/03/09 00:06:57;;;;;;;0.88;0.70;;;;;;;;;;10220508;29;20450;-84
2023/03/09 00:12:00;;;;;;;1.77;0.80;;;;;;;;;;10236677;28;20063;-83
2023/03/09 00:17:05;;;;;;;0.70;0.60;;;;;;;;;;10198421;29;20062;-82
2023/03/09 00:22:08;;;;;;;0.40;0.40;;;;;;;;;;10223481;28;20058;-84
2023/03/09 00:27:12;;;;;;;0.80;0.60;;;;;;;;;;10224905;28;20047;-84
2023/03/09 00:32:17;;;;;;;0.63;0.52;;;;;;;;;;10209557;29;20081;-84
2023/03/09 00:37:21;;;;;;;0.38;0.38;;;;;;;;;;10218140;29;20075;-83
2023/03/09 00:42:24;;;;;;;0.45;0.45;;;;;;;;;;10227700;29;20127;-82
2023/03/09 00:47:29;;;;;;;0.43;0.40;;;;;;;;;;10210628;29;20060;-82
2023/03/09 00:52:33;;;;;;;0.70;0.47;;;;;;;;;;10226913;28;20047;-82
2023/03/09 00:57:36;;;;;;;1.52;0.95;;;;;;;;;;10207983;29;20213;-82
2023/03/09 01:02:41;;;;;;;2.13;1.40;;;;;;;;;;10221289;29;20055;-80
2023/03/09 01:07:44;;;;;;;2.10;0.95;;;;;;;;;;10202689;29;20048;-80
2023/03/09 01:12:48;;;;;;;2.88;1.02;;;;;;;;;;10205087;29;20051;-80
2023/03/09 01:17:52;;;;;;;2.97;0.80;;;;;;;;;;10210890;28;20051;-81
2023/03/09 01:22:56;;;;;;;0.95;0.80;;;;;;;;;;10208539;29;20120;-80
2023/03/09 01:27:59;;;;;;;0.52;0.40;;;;;;;;;;10167387;29;1036643;-81
2023/03/09 01:33:04;;;;;;;0.50;0.50;;;;;;;;;;10227745;28;20051;-81
2023/03/09 01:38:09;;;;;;;0.98;0.55;;;;;;;;;;10226736;28;20059;-84
2023/03/09 01:43:29;;;;;;;0.82;0.45;;;;;;;;;;10208008;28;20515;-82
2023/03/09 01:48:37;;;;;;;2.97;0.40;;;;;;;;;;10196588;29;20134;-83
2023/03/09 01:53:42;;;;;;;;;;;;;;;;;;10221004;28;20047;-83
2023/03/09 01:58:45;;;;;;;0.68;0.43;;;;;;;;;;10218958;29;19923;-83
2023/03/09 02:03:56;;;;;;;0.50;0.37;;;;;;;;;;10212206;28;20055;-82
2023/03/09 02:09:06;;;;;;;1.08;0.43;;;;;;;;;;10218972;29;20052;-83
2023/03/09 02:14:11;;;;;;;0.40;0.40;;;;;;;;;;10214562;29;20566;-84
2023/03/09 02:19:31;;;;;;;0.40;0.40;;;;;;;;;;10205300;29;20044;-83
2023/03/09 02:24:44;;;;;;;0.85;0.40;;;;;;;;;;10199771;29;20048;-81
2023/03/09 02:29:49;;;;;;;0.43;0.40;;;;;;;;;;10213478;29;20493;-82
2023/03/09 02:34:55;;;;;;;0.90;0.60;;;;;;;;;;10194933;29;20538;-81
2023/03/09 02:40:04;;;;;;;0.40;0.40;;;;;;;;;;10197536;29;20070;-83
2023/03/09 02:45:11;;;;;;;1.02;0.50;;;;;;;;;;10212370;29;20043;-83
2023/03/09 02:50:15;;;;;;;0.40;0.40;;;;;;;;;;10196471;29;20811;-83
2023/03/09 02:55:19;;;;;;;0.65;0.40;;;;;;;;;;10202266;29;20048;-84
2023/03/09 03:00:25;;;;;;;0.68;0.40;;;;;;;;;;10209813;29;20546;-84
2023/03/09 03:05:30;;;;;;;1.45;0.38;;;;;;;;;;10214995;29;20044;-83
2023/03/09 03:10:35;;;;;;;1.30;0.50;;;;;;;;;;10200423;29;20103;-81
2023/03/09 03:15:39;;;;;;;0.63;0.40;;;;;;;;;;10224367;28;20062;-80
2023/03/09 03:20:43;;;;;;;1.95;0.40;;;;;;;;;;10219034;29;20059;-80
2023/03/09 03:25:46;;;;;;;1.05;0.60;;;;;;;;;;10222819;29;20107;-83
2023/03/09 03:30:54;;;;;;;0.75;0.60;;;;;;;;;;10217266;29;20067;-82
2023/03/09 03:36:00;;;;;;;0.40;0.40;;;;;;;;;;10237734;28;20051;-83
2023/03/09 03:41:05;;;;;;;0.65;0.65;;;;;;;;;;10220207;29;20070;-83
2023/03/09 03:46:10;;;;;;;0.57;0.50;;;;;;;;;;10206045;29;20752;-86
2023/03/09 03:51:14;;;;;;;0.55;0.50;;;;;;;;;;10214487;29;20036;-85
2023/03/09 03:56:21;;;;;;;0.40;0.40;;;;;;;;;;10213971;29;20527;-84
2023/03/09 04:01:27;;;;;;;0.73;0.40;;;;;;;;;;10218026;29;20699;-85
2023/03/09 04:06:37;;;;;;;2.35;0.70;;;;;;;;;;10205258;29;20039;-85
2023/03/09 04:11:41;;;;;;;1.50;0.63;;;;;;;;;;10198926;29;20054;-82
2023/03/09 04:16:46;;;;;;;0.73;0.40;;;;;;;;;;10217134;29;20143;-82
2023/03/09 04:21:49;;;;;;;1.85;0.52;;;;;;;;;;10216185;28;20074;-83
2023/03/09 04:26:54;;;;;;;4.53;0.90;;;;;;;;;;10189673;28;20593;-82
2023/03/09 04:32:19;;;;;;;2.15;0.73;;;;;;;;;;10226682;29;20791;-83
2023/03/09 04:37:25;;;;;;;3.25;0.55;;;;;;;;;;10202211;29;20095;-84
2023/03/09 04:42:30;;;;;;;1.95;0.60;;;;;;;;;;10183506;28;20059;-82
2023/03/09 04:47:36;;;;;;;1.10;0.75;;;;;;;;;;10190646;29;20055;-82
2023/03/09 04:52:39;;;;;;;0.50;0.40;;;;;;;;;;10196071;28;20067;-82
2023/03/09 04:57:43;;;;;;;1.40;0.50;;;;;;;;;;10193906;28;20039;-83
2023/03/09 05:02:49;;;;;;;1.42;0.60;;;;;;;;;;10204065;29;20067;-84
2023/03/09 05:07:52;;;;;;;0.75;0.50;;;;;;;;;;10194060;29;20043;-83
2023/03/09 05:12:56;;;;;;;2.42;0.75;;;;;;;;;;10185410;29;20059;-83
2023/03/09 05:18:04;;;;;;;1.80;0.70;;;;;;;;;;10209675;29;20123;-83
2023/03/09 05:23:08;;;;;;;2.15;0.70;;;;;;;;;;10202940;29;20050;-82
2023/03/09 05:28:12;;;;;;;5.10;1.10;;;;;;;;;;10192252;28;20054;-82
2023/03/09 05:33:19;;;;;;;6.83;1.30;;;;;;;;;;10215448;29;20461;-83
2023/03/09 05:38:22;;;;;;;6.82;1.33;;;;;;;;;;10210664;28;20097;-84
2023/03/09 05:43:27;;;;;;;2.65;1.23;;;;;;;;;;10220489;29;20103;-83
2023/03/09 05:48:32;;;;;;;6.15;1.80;;;;;;;;;;10209586;29;20213;-82
2023/03/09 05:53:46;;;;;;;6.13;1.35;;;;;;;;;;10216199;28;20038;-80
2023/03/09 05:58:51;;;;;;;5.57;1.40;;;;;;;;;;10212843;29;20055;-84
2023/03/09 06:04:01;;;;;;;4.13;1.48;;;;;;;;;;10203447;29;20640;-82
2023/03/09 06:09:06;;;;;;;6.03;1.60;;;;;;;;;;10211890;29;20134;-84
2023/03/09 06:14:10;;;;;;;3.35;0.98;;;;;;;;;;10201491;29;20058;-87
2023/03/09 06:19:18;;;;;;;4.57;1.63;;;;;;;;;;10224842;28;20050;-86
2023/03/09 06:24:22;;;;;;;2.63;0.90;;;;;;;;;;10220865;29;20035;-86
2023/03/09 06:29:27;;;;;;;3.60;1.20;;;;;;;;;;10217925;29;20055;-87
2023/03/09 06:34:33;;;;;;;2.53;0.77;;;;;;;;;;10229107;28;20055;-87
2023/03/09 06:39:40;;;;;;;2.42;0.80;;;;;;;;;;10220102;29;20054;-86
2023/03/09 06:44:46;;;;;;;3.80;1.10;;;;;;;;;;10212054;29;20040;-85
2023/03/09 06:49:53;;;;;;;3.40;0.80;;;;;;;;;;10200886;29;20098;-85
2023/03/09 06:54:58;;;;;;;7.28;1.15;;;;;;;;;;10207243;29;20039;-86
2023/03/09 07:00:19;;;;;;;6.45;1.50;;;;;;;;;;10217956;29;20043;-86
2023/03/09 07:05:28;;;;;;;4.55;1.17;;;;;;;;;;10214704;29;20078;-86
2023/03/09 07:10:31;;;;;;;4.82;1.30;;;;;;;;;;10187524;29;20238;-85
2023/03/09 07:15:37;;;;;;;3.50;1.13;;;;;;;;;;10183983;29;20051;-85
2023/03/09 07:20:43;;;;;;;2.40;1.02;;;;;;;;;;10191095;29;20040;-84
2023/03/09 07:25:46;;;;;;;4.32;1.02;;;;;;;;;;10198515;29;20047;-85
2023/03/09 07:30:50;;;;;;;3.00;1.00;;;;;;;;;;10220938;28;20102;-84
2023/03/09 07:35:55;;;;;;;2.30;0.77;;;;;;;;;;10206720;29;20047;-85
2023/03/09 07:40:59;;;;;;;1.95;0.80;;;;;;;;;;10229618;28;20074;-86
2023/03/09 07:46:05;;;;;;;1.25;0.60;;;;;;;;;;10200415;28;20078;-84
2023/03/09 07:51:11;;;;;;;1.48;0.77;;;;;;;;;;10196930;29;20134;-83
2023/03/09 07:56:15;;;;;;;1.70;0.65;;;;;;;;;;10218986;29;20051;-85
2023/03/09 08:01:23;;;;;;;4.00;1.02;;;;;;;;;;10221387;28;20511;-86
2023/03/09 08:06:28;;;;;;;1.67;0.73;;;;;;;;;;10207586;29;20039;-86
2023/03/09 08:11:31;;;;;;;2.25;0.80;;;;;;;;;;10211693;29;20058;-86
2023/03/09 08:16:35;;;;;;;1.45;0.70;;;;;;;;;;10217445;29;20422;-85
2023/03/09 08:21:40;;;;;;;0.85;0.60;;;;;;;;;;10219382;29;20044;-84
2023/03/09 08:26:43;;;;;;;0.95;0.68;;;;;;;;;;10205203;28;20282;-85
2023/03/09 08:31:47;;;;;;;0.85;0.60;;;;;;;;;;10272241;28;20434;-86
2023/03/09 08:36:51;;;;;;;0.80;0.70;;;;;;;;;;10248877;28;20074;-85
2023/03/09 08:41:55;;;;;;;1.48;0.80;;;;;;;;;;10232592;28;20062;-85
2023/03/09 08:46:58;;;;;;;2.85;0.80;;;;;;;;;;10243186;28;20047;-85
2023/03/09 08:52:03;;;;;;;1.25;0.60;;;;;;;;;;10261319;28;20043;-85
2023/03/09 08:57:07;;;;;;;;;;;;;;;;;;10269145;28;20093;-86
2023/03/09 09:02:14;;;;;;;1.50;0.80;;;;;;;;;;10251224;28;19923;-84
2023/03/09 09:07:20;;;;;;;2.15;0.80;;;;;;;;;;10249771;28;20047;-85
2023/03/09 09:12:25;;;;;;;2.63;0.75;;;;;;;;;;10239814;28;20051;-84
2023/03/09 09:17:29;;;;;;;0.40;0.30;;;;;;;;;;10245954;28;20053;-84
2023/03/09 09:22:33;;;;;;;2.45;0.70;;;;;;;;;;10252715;28;20057;-84
2023/03/09 09:27:37;;;;;;;2.08;0.70;;;;;;;;;;10246442;28;20134;-84
2023/03/09 09:32:41;;;;;;;1.92;0.70;;;;;;;;;;10257526;28;20047;-86
2023/03/09 09:43:23;;;;;;;2.20;0.85;;;;;;;;;;10393950;23;20289;-85
2023/03/09 09:48:28;;;;;;;1.93;0.87;;;;;;;;;;10231459;28;20078;-86
2023/03/09 09:53:43;;;;;;;2.70;0.80;;;;;;;;;;10245391;28;20932;-86
2023/03/09 09:58:54;;;;;;;3.33;0.90;;;;;;;;;;10216529;28;20494;-86
2023/03/09 10:04:12;;;;;;;2.42;0.80;;;;;;;;;;10230508;28;20138;-86
2023/03/09 10:09:25;;;;;;;2.55;0.80;;;;;;;;;;10242025;28;20082;-86
2023/03/09 10:14:33;;;;;;;3.20;1.08;;;;;;;;;;10253108;28;20047;-85
2023/03/09 10:19:38;;;;;;;1.90;1.02;;;;;;;;;;10243196;28;20139;-87
2023/03/09 10:24:44;;;;;;;3.93;0.97;;;;;;;;;;10221259;28;20130;-89
2023/03/09 10:29:55;;;;;;;4.90;1.10;;;;;;;;;;10207859;28;20396;-84
2023/03/09 10:35:20;;;;;;;5.00;1.30;;;;;;;;;;10209172;28;20050;-84
2023/03/09 10:40:26;;;;;;;5.22;1.15;;;;;;;;;;10229978;28;20090;-84
2023/03/09 10:45:33;;;;;;;5.45;1.08;;;;;;;;;;10203121;28;20047;-84
2023/03/09 10:50:40;;;;;;;4.65;1.20;;;;;;;;;;10207101;28;20064;-84
2023/03/09 10:55:46;;;;;;;6.00;1.30;;;;;;;;;;10201273;28;20054;-84
2023/03/09 11:01:02;;;;;;;6.85;1.50;;;;;;;;;;10201860;28;20047;-84
2023/03/09 11:06:24;;;;;;;5.95;1.60;;;;;;;;;;10203163;28;20146;-84
2023/03/09 11:11:28;;;;;;;5.00;1.33;;;;;;;;;;10201158;28;20074;-84
2023/03/09 11:16:34;;;;;;;2.83;0.93;;;;;;;;;;10218547;28;20081;-85
2023/03/09 11:21:40;;;;;;;6.65;1.70;;;;;;;;;;10234956;28;20054;-84
2023/03/09 11:26:48;;;;;;;6.30;1.50;;;;;;;;;;10239657;28;20050;-84
2023/03/09 11:31:52;;;;;;;4.57;1.40;;;;;;;;;;10204608;28;20046;-84
2023/03/09 11:37:00;;;;;;;5.28;1.20;;;;;;;;;;10217296;28;20035;-85
2023/03/09 11:42:06;;;;;;;5.85;1.35;;;;;;;;;;10203352;28;20058;-85
2023/03/09 11:47:29;;;;;;;2.65;1.23;;;;;;;;;;10200064;28;20071;-82
2023/03/09 11:52:37;;;;;;;6.65;1.63;;;;;;;;;;10205910;28;20070;-82
2023/03/09 11:57:43;;;;;;;5.30;1.50;;;;;;;;;;10207214;28;20047;-82
2023/03/09 12:02:58;;;;;;;6.82;1.50;;;;;;;;;;10205786;28;20039;-82
2023/03/09 12:08:06;;;;;;;6.63;1.52;;;;;;;;;;10210211;28;20038;-82
2023/03/09 12:13:15;;;;;;;6.65;1.40;;;;;;;;;;10211218;28;20058;-82
2023/03/09 12:18:23;;;;;;;5.65;1.83;;;;;;;;;;10227407;28;20054;-83
2023/03/09 12:23:48;;;;;;;6.15;1.60;;;;;;;;;;10228947;28;20047;-82
2023/03/09 12:29:05;;;;;;;6.10;1.60;;;;;;;;;;10214208;28;20058;-83
2023/03/09 12:34:28;;;;;;;6.43;2.03;;;;;;;;;;10224106;28;20423;-82
2023/03/09 12:39:39;;;;;;;5.82;2.28;;;;;;;;;;10206411;28;20043;-83
2023/03/09 12:45:04;;;;;;;7.18;1.70;;;;;;;;;;10216066;28;20070;-83
2023/03/09 12:50:24;;;;;;;6.18;2.10;;;;;;;;;;10204199;28;20474;-82
2023/03/09 12:55:48;;;;;;;7.78;1.75;;;;;;;;;;10224451;28;20070;-85
2023/03/09 13:00:54;;;;;;;9.95;2.33;;;;;;;;;;10218363;28;20090;-88
2023/03/09 13:06:01;;;;;;;7.22;1.70;;;;;;;;;;10218179;28;20537;-86
2023/03/09 13:11:32;;;;;;;9.30;2.38;;;;;;;;;;10240565;28;20451;-87
2023/03/09 13:17:01;;;;;;;13.98;2.33;;;;;;;;;;10224658;28;20754;-89
2023/03/09 13:22:29;;;;;;;6.22;1.95;;;;;;;;;;10236854;28;20090;-88
2023/03/09 13:27:35;;;;;;;7.43;2.13;;;;;;;;;;10204799;28;20055;-86
2023/03/09 13:32:42;;;;;;;6.75;1.60;;;;;;;;;;10230011;28;20278;-85
2023/03/09 13:37:48;;;;;;;9.25;1.95;;;;;;;;;;10215031;28;20055;-89
2023/03/09 13:42:51;;;;;;;8.03;2.03;;;;;;;;;;10212938;28;20458;-82
2023/03/09 13:47:57;;;;;;;4.30;1.70;;;;;;;;;;10209120;28;20294;-85
2023/03/09 13:53:03;;;;;;;5.70;1.50;;;;;;;;;;10213251;28;20100;-86
2023/03/09 13:58:14;;;;;;;5.50;1.33;;;;;;;;;;10227602;28;20704;-82
2023/03/09 14:03:18;;;;;;;5.25;1.55;;;;;;;;;;10198294;28;20043;-83
2023/03/09 14:08:24;;;;;;;7.35;1.65;;;;;;;;;;10224198;28;20054;-82
2023/03/09 14:13:27;;;;;;;;;;;;;;;;;;10202897;28;20095;-82
2023/03/09 14:18:41;;;;;;;8.27;1.92;;;;;;;;;;10209549;28;19923;-83
2023/03/09 14:23:45;;;;;;;8.38;2.28;;;;;;;;;;10201235;28;20047;-83
2023/03/09 14:29:01;;;;;;;6.28;1.63;;;;;;;;;;10208252;28;20050;-83
2023/03/09 14:34:06;;;;;;;7.45;1.83;;;;;;;;;;10201083;28;20047;-83
2023/03/09 14:39:24;;;;;;;9.73;1.73;;;;;;;;;;10200778;28;20741;-83
2023/03/09 14:44:33;;;;;;;7.03;1.75;;;;;;;;;;10209219;28;20519;-85
2023/03/09 14:49:36;;;;;;;8.82;1.92;;;;;;;;;;10217751;28;20114;-85
2023/03/09 14:54:42;;;;;;;6.93;2.15;;;;;;;;;;10222601;28;20051;-84
2023/03/09 14:59:46;;;;;;;9.68;1.90;;;;;;;;;;10202038;28;20352;-83
2023/03/09 15:04:49;;;;;;;9.02;2.20;;;;;;;;;;10208085;28;20446;-83
2023/03/09 15:09:55;;;;;;;11.90;3.03;;;;;;;;;;10223182;28;20043;-82
2023/03/09 15:14:59;;;;;;;9.63;2.75;;;;;;;;;;10221571;28;20130;-82
2023/03/09 15:20:03;;;;;;;9.75;2.30;;;;;;;;;;10208401;28;20801;-83
2023/03/09 15:25:11;;;;;;;9.02;2.20;;;;;;;;;;10199825;28;20051;-82
2023/03/09 15:30:16;;;;;;;13.45;2.90;;;;;;;;;;10209519;28;20073;-85
2023/03/09 15:35:22;;;;;;;10.53;2.40;;;;;;;;;;10228346;28;20051;-82
2023/03/09 15:40:27;;;;;;;10.45;2.42;;;;;;;;;;10230161;28;20058;-87
2023/03/09 15:45:31;;;;;;;12.05;2.78;;;;;;;;;;10207144;28;20134;-84
2023/03/09 15:50:37;;;;;;;6.88;2.50;;;;;;;;;;10211288;28;20771;-82
2023/03/09 15:55:42;;;;;;;9.20;2.33;;;;;;;;;;10207866;28;20043;-86
2023/03/09 16:00:47;;;;;;;11.30;2.75;;;;;;;;;;10224057;28;20078;-85
2023/03/09 16:05:50;;;;;;;10.75;2.35;;;;;;;;;;10220367;28;20042;-83
2023/03/09 16:10:55;;;;;;;9.35;2.90;;;;;;;;;;10205614;28;20051;-82
2023/03/09 16:15:58;;;;;;;9.88;2.38;;;;;;;;;;10209507;28;20063;-86
2023/03/09 16:21:03;;;;;;;8.98;2.60;;;;;;;;;;10223751;28;20051;-89
2023/03/09 16:26:11;;;;;;;5.65;1.90;;;;;;;;;;10237606;28;20052;-86
2023/03/09 16:31:16;;;;;;;7.78;1.85;;;;;;;;;;10225669;28;20131;-81
2023/03/09 16:36:20;;;;;;;9.85;2.15;;;;;;;;;;10203290;28;20051;-81
2023/03/09 16:41:25;;;;;;;12.10;3.20;;;;;;;;;;10204819;28;20102;-81
2023/03/09 16:46:29;;;;;;;7.63;2.25;;;;;;;;;;10217802;28;20130;-84
2023/03/09 16:51:32;;;;;;;9.00;2.53;;;;;;;;;;10212050;28;20047;-82
2023/03/09 16:56:37;;;;;;;8.38;2.13;;;;;;;;;;10212447;28;20051;-81
2023/03/09 17:01:41;;;;;;;9.95;2.85;;;;;;;;;;10217016;28;20051;-81
2023/03/09 17:06:44;;;;;;;11.93;2.70;;;;;;;;;;10203059;28;20054;-82
2023/03/09 17:11:49;;;;;;;8.32;2.72;;;;;;;;;;10201874;28;20061;-82
2023/03/09 17:16:52;;;;;;;6.15;1.73;;;;;;;;;;10211770;28;20047;-81
2023/03/09 17:21:55;;;;;;;9.75;2.40;;;;;;;;;;10202934;28;20047;-81
2023/03/09 17:27:00;;;;;;;9.13;2.25;;;;;;;;;;10218625;28;20062;-82
2023/03/09 17:32:07;;;;;;;8.23;1.95;;;;;;;;;;10218916;28;20051;-81
2023/03/09 17:37:10;;;;;;;6.75;1.88;;;;;;;;;;10206499;28;20049;-82
2023/03/09 17:42:18;;;;;;;4.25;1.42;;;;;;;;;;10217087;28;20704;-84
2023/03/09 17:47:22;;;;;;;6.53;1.67;;;;;;;;;;10213607;28;20623;-86
2023/03/09 17:52:27;;;;;;;8.05;2.05;;;;;;;;;;10215364;28;20049;-87
2023/03/09 17:57:31;;;;;;;10.95;3.15;;;;;;;;;;10202752;28;20506;-83
2023/03/09 18:02:35;;;;;;;11.18;2.97;;;;;;;;;;10199355;28;20134;-83
2023/03/09 18:07:38;;;;;;;12.13;2.28;;;;;;;;;;10211344;28;20405;-91
2023/03/09 18:12:43;;;;;;;11.02;2.78;;;;;;;;;;10213921;28;20051;-89
2023/03/09 18:17:47;;;;;;;6.18;1.70;;;;;;;;;;10226863;28;20044;-86
2023/03/09 18:22:51;;;;;;;8.65;2.28;;;;;;;;;;10221024;28;20055;-84
2023/03/09 18:27:56;;;;;;;6.95;2.35;;;;;;;;;;10203185;28;20043;-88
2023/03/09 18:32:59;;;;;;;9.23;1.90;;;;;;;;;;10207841;28;20050;-88
2023/03/09 18:38:03;;;;;;;7.20;2.10;;;;;;;;;;10215219;28;20051;-84
2023/03/09 18:43:08;;;;;;;6.80;2.00;;;;;;;;;;10201458;28;20142;-84
2023/03/09 18:48:14;;;;;;;5.97;1.73;;;;;;;;;;10207440;28;20047;-87
2023/03/09 18:53:20;;;;;;;9.25;2.30;;;;;;;;;;10221253;28;20050;-87
2023/03/09 18:58:25;;;;;;;5.13;1.30;;;;;;;;;;10239342;23;20157;-81
2023/03/09 19:03:29;;;;;;;5.90;1.50;;;;;;;;;;10230770;28;20051;-80
2023/03/09 19:08:36;;;;;;;5.63;1.33;;;;;;;;;;10228101;28;20046;-82
2023/03/09 19:13:41;;;;;;;12.25;2.42;;;;;;;;;;10239796;28;20506;-82
2023/03/09 19:18:49;;;;;;;5.90;1.63;;;;;;;;;;10211144;28;20418;-83
2023/03/09 19:23:54;;;;;;;5.30;1.67;;;;;;;;;;10166253;28;20051;-82
2023/03/09 19:28:58;;;;;;;5.10;1.40;;;;;;;;;;10195026;28;20059;-82
2023/03/09 19:34:02;;;;;;;4.28;1.38;;;;;;;;;;10205125;28;20054;-82
2023/03/09 19:39:06;;;;;;;3.60;1.30;;;;;;;;;;10241733;28;20065;-81
2023/03/09 19:44:14;;;;;;;5.38;1.30;;;;;;;;;;10219541;28;20106;-81
2023/03/09 19:49:17;;;;;;;4.05;1.33;;;;;;;;;;10211337;28;20245;-81
2023/03/09 19:54:20;;;;;;;5.03;1.10;;;;;;;;;;10189822;28;20055;-82
2023/03/09 19:59:29;;;;;;;2.30;1.13;;;;;;;;;;10221074;28;20550;-81
2023/03/09 20:04:33;;;;;;;4.72;1.48;;;;;;;;;;10214766;28;20043;-81
2023/03/09 20:09:37;;;;;;;4.38;1.25;;;;;;;;;;10216801;28;20572;-81
2023/03/09 20:14:43;;;;;;;5.22;1.80;;;;;;;;;;10212790;28;20047;-82
2023/03/09 20:19:46;;;;;;;5.63;1.60;;;;;;;;;;10195449;28;20493;-81
2023/03/09 20:24:50;;;;;;;8.20;1.42;;;;;;;;;;10226754;28;20058;-81
2023/03/09 20:29:54;;;;;;;4.63;1.30;;;;;;;;;;10195497;28;20049;-81
2023/03/09 20:34:58;;;;;;;7.43;1.48;;;;;;;;;;10219287;28;20053;-82
2023/03/09 20:40:01;;;;;;;6.47;1.52;;;;;;;;;;10205175;28;20050;-81
2023/03/09 20:45:07;;;;;;;3.40;1.13;;;;;;;;;;10215155;28;20478;-79
2023/03/09 20:50:13;;;;;;;7.10;1.52;;;;;;;;;;10204023;28;20047;-80
2023/03/09 20:55:17;;;;;;;6.07;1.58;;;;;;;;;;10174033;29;20058;-80
2023/03/09 21:00:22;;;;;;;5.38;1.30;;;;;;;;;;10191153;28;20054;-81
2023/03/09 21:05:26;;;;;;;4.57;1.67;;;;;;;;;;10223261;28;20050;-81
2023/03/09 21:10:29;;;;;;;3.88;1.33;;;;;;;;;;10199123;28;20066;-81
2023/03/09 21:15:35;;;;;;;3.38;1.55;;;;;;;;;;10211979;28;20054;-81
2023/03/09 21:20:39;;;;;;;4.63;1.93;;;;;;;;;;10210050;28;20035;-81
2023/03/09 21:25:42;;;;;;;5.00;1.70;;;;;;;;;;10208847;28;20039;-82
2023/03/09 21:30:47;;;;;;;5.50;1.35;;;;;;;;;;10213867;28;20042;-81
2023/03/09 21:35:50;;;;;;;4.50;1.42;;;;;;;;;;10216094;28;20043;-80
2023/03/09 21:40:56;;;;;;;4.65;1.60;;;;;;;;;;10216337;28;20051;-80
2023/03/09 21:46:00;;;;;;;4.30;1.57;;;;;;;;;;10206656;28;20059;-81
2023/03/09 21:51:05;;;;;;;4.13;1.20;;;;;;;;;;10228152;28;20047;-81
2023/03/09 21:56:10;;;;;;;1.70;1.10;;;;;;;;;;10191700;28;20051;-81
2023/03/09 22:01:18;;;;;;;5.43;1.10;;;;;;;;;;10238398;28;20433;-81
2023/03/09 22:06:23;;;;;;;2.45;1.15;;;;;;;;;;10240287;28;20055;-81
2023/03/09 22:11:29;;;;;;;3.33;1.08;;;;;;;;;;10246672;28;20043;-81
2023/03/09 22:16:35;;;;;;;6.05;1.20;;;;;;;;;;10232626;28;20047;-81
2023/03/09 22:21:39;;;;;;;2.67;1.05;;;;;;;;;;10200737;28;20050;-81
2023/03/09 22:26:42;;;;;;;3.17;1.10;;;;;;;;;;10220783;28;20073;-81
2023/03/09 22:31:47;;;;;;;4.15;1.42;;;;;;;;;;10210255;28;20050;-81
2023/03/09 22:36:50;;;;;;;6.07;1.27;;;;;;;;;;10241510;28;20081;-81
2023/03/09 22:41:54;;;;;;;2.20;0.85;;;;;;;;;;10212702;28;20048;-80
2023/03/09 22:46:59;;;;;;;4.15;1.25;;;;;;;;;;10228309;28;20058;-79
2023/03/09 22:52:03;;;;;;;1.40;0.80;;;;;;;;;;10212637;28;20051;-80
2023/03/09 22:57:07;;;;;;;3.42;1.20;;;;;;;;;;10212555;28;20522;-80
2023/03/09 23:02:12;;;;;;;2.28;0.90;;;;;;;;;;10198892;28;20054;-82
2023/03/09 23:07:15;;;;;;;4.75;1.17;;;;;;;;;;10221773;28;20054;-80
2023/03/09 23:12:19;;;;;;;3.63;1.00;;;;;;;;;;10224273;28;20047;-81
2023/03/09 23:17:23;;;;;;;1.65;0.80;;;;;;;;;;10226412;28;20057;-80
2023/03/09 23:22:27;;;;;;;1.67;0.70;;;;;;;;;;10224337;28;20514;-82
2023/03/09 23:27:31;;;;;;;2.00;0.73;;;;;;;;;;10227623;28;20048;-82
2023/03/09 23:32:39;;;;;;;1.60;0.47;;;;;;;;;;10228661;28;20260;-81
2023/03/09 23:37:43;;;;;;;2.50;0.57;;;;;;;;;;10262961;28;20055;-81
2023/03/09 23:42:46;;;;;;;1.50;0.52;;;;;;;;;;10229846;28;20043;-81
2023/03/09 23:47:51;;;;;;;1.20;0.70;;;;;;;;;;10235695;28;20430;-81
2023/03/09 23:52:54;;;;;;;1.00;0.50;;;;;;;;;;10233715;28;20039;-82
2023/03/09 23:57:58;;;;;;;3.03;0.60;;;;;;;;;;10244916;28;20470;-81
